Skip Navigation LinksHome page > Weather > Current weather Skip Navigation Links

Current Weather

San Antonio Intl, San Antonio, Tex.

For information only: do not use for flight planning or navigation.
Latest weather
Observation time Tuesday, October 19, 2021 2:51 PM CDT
Local time Tuesday, October 19, 2021 3:51 PM CDT
Flight conditions Visual Meteorological Conditions
Winds
Wind direction Southeast (140°)
Wind speed 13 mph
Wind gusting to 20 mph
Visibility 10 mi.
Sky condition
Ceiling 25,000 ft. broken clouds
Cloud layer scattered clouds 4,000 ft.
Cloud layer broken clouds 25,000 ft.
Temperature 80°F
Dewpoint 64°F
Altimeter 30.00 in.Hg
Derived measurements
Relative humidity 58%
Heat index 82°F
Density altitude 2348 ft.
Sea-level pressure 29.95 in.Hg
Remarks
Automated weather observing station with precipitation discriminator.
METAR KSAT 191951Z 14011G17KT 10SM SCT040 BKN250 27/18 A3000 RMK AO2 SLP143 T02670178

Settings

Location code

InnerDrive.Weather 4.0.6770.0 Release CLR 4.0.30319.42000
Copyright ©2018 Inner Drive Technology. All rights reserved. Portions Copyright ©1986-2018 David Braverman.

Find weather

Site navigation


Skip Navigation Links

Place info

Page info

PayPal - The safer, easier way to pay online!

Return home.

Copyright ©2021 Inner Drive Technology. Purveyors of fine, hand-crafted computer software. Page printed 2021-10-19T20:51:58 UTC.